X  Chiuso Dati meteorologici dell'aviazione (METAR)     EHAM Amsterdam Airport Schiphol
Temperatura
6°C Temperatura
5°C Punto di rugiada
93% Umidità



Vento
2 KM/O
1 MPH
0 M/S
1 KTS



Calmo
N
Condizioni attuali

Parzialmente nuvoloso Parzialmente nuvoloso
Pressione 1010.84 (hPa) - 29.85 (inHg)
Visibilità 6 (miglio) - 9.7 (km)
Aeroporto
Codice-Aeroporto EHAM

Posizione: Amsterdam Airport Schiphol
Distanza: 26 (km)

Metar:
EHAM 040725Z VRB01KT 9999 FEW013 06/05 Q1011 NOSIG

Ore: 04-03-2024 08:25 CET